createdAt,value
2023-02-04T00:00:21.924Z,3.79
2023-02-04T00:03:09.778Z,3.61
2023-02-04T00:05:37.691Z,3.55
2023-02-04T00:08:05.814Z,3.50
2023-02-04T00:10:34.127Z,3.48
2023-02-04T00:13:02.912Z,3.47
2023-02-04T00:15:31.145Z,3.44
2023-02-04T00:17:59.559Z,3.43
2023-02-04T00:20:27.389Z,3.43
2023-02-04T00:22:55.262Z,3.40
2023-02-04T00:25:23.116Z,3.39
2023-02-04T00:27:51.045Z,3.40
2023-02-04T00:30:19.224Z,3.40
2023-02-04T00:32:47.032Z,3.39
2023-02-04T00:35:14.954Z,3.37
2023-02-04T00:37:42.797Z,3.36
2023-02-04T00:40:11.241Z,3.34
2023-02-04T00:42:40.904Z,3.30
2023-02-04T00:45:09.646Z,3.26
2023-02-04T00:47:37.499Z,3.25
2023-02-04T00:50:06.033Z,3.23
2023-02-04T00:52:33.901Z,3.21
2023-02-04T00:55:01.777Z,3.23
2023-02-04T00:57:29.727Z,3.23
2023-02-04T00:59:57.838Z,3.22
2023-02-04T01:02:25.836Z,3.19
2023-02-04T01:04:53.767Z,3.19
2023-02-04T01:07:21.706Z,3.19
2023-02-04T01:09:49.839Z,3.17
2023-02-04T01:12:17.700Z,3.16
2023-02-04T01:14:45.768Z,3.16
2023-02-04T01:17:13.605Z,3.15
2023-02-04T01:19:41.447Z,3.16
2023-02-04T01:22:09.297Z,3.16
2023-02-04T01:24:37.163Z,3.13
2023-02-04T01:27:23.592Z,3.11
2023-02-04T01:29:51.414Z,3.05
2023-02-04T01:32:19.223Z,2.97
2023-02-04T01:34:47.115Z,2.81
2023-02-04T01:37:15.004Z,2.64
2023-02-04T01:39:42.865Z,2.44
2023-02-04T01:42:11.822Z,2.27
2023-02-04T01:44:40.102Z,2.14
2023-02-04T01:47:08.032Z,2.06
2023-02-04T01:49:35.962Z,1.96
2023-02-04T01:52:04.482Z,1.78
2023-02-04T01:54:32.758Z,1.57
2023-02-04T01:57:00.842Z,1.34
2023-02-04T01:59:28.750Z,1.15
2023-02-04T02:01:56.616Z,1.03
2023-02-04T02:04:33.094Z,0.95
2023-02-04T02:07:06.021Z,0.88
2023-02-04T02:09:34.457Z,0.83
2023-02-04T02:12:03.887Z,0.80
2023-02-04T02:14:31.845Z,0.78
2023-02-04T02:16:59.782Z,0.76
2023-02-04T02:19:33.769Z,0.74
2023-02-04T02:22:06.940Z,0.74
2023-02-04T02:24:36.644Z,0.73
2023-02-04T02:27:08.397Z,0.74
2023-02-04T02:29:38.906Z,0.73
2023-02-04T02:32:08.736Z,0.71
2023-02-04T02:34:37.997Z,0.71
2023-02-04T02:37:09.034Z,0.71
2023-02-04T02:39:39.611Z,0.69
2023-02-04T02:42:07.821Z,0.69
2023-02-04T02:44:35.643Z,0.69
2023-02-04T02:47:03.560Z,0.69
2023-02-04T02:49:33.069Z,0.68
2023-02-04T02:52:01.006Z,0.69
2023-02-04T02:54:31.864Z,0.69
2023-02-04T02:57:02.146Z,0.68
2023-02-04T02:59:30.041Z,0.68
2023-02-04T03:02:01.991Z,0.68
2023-02-04T03:04:35.015Z,0.68
2023-02-04T03:07:03.944Z,0.67
2023-02-04T03:09:33.530Z,0.67
2023-02-04T03:12:02.243Z,0.66
2023-02-04T03:14:30.221Z,0.65
2023-02-04T03:16:59.737Z,0.65
2023-02-04T03:19:28.381Z,0.64
2023-02-04T03:21:57.534Z,0.64
2023-02-04T03:24:25.732Z,0.64
2023-02-04T03:26:53.837Z,0.64
2023-02-04T03:29:21.709Z,0.63
2023-02-04T03:31:49.805Z,0.63
2023-02-04T03:34:17.670Z,0.62
2023-02-04T03:36:45.607Z,0.60
2023-02-04T03:39:13.500Z,0.59
2023-02-04T03:41:41.347Z,0.58
2023-02-04T03:44:09.134Z,0.54
2023-02-04T03:46:37.005Z,0.53
2023-02-04T03:49:04.910Z,0.51
2023-02-04T03:51:32.744Z,0.49
2023-02-04T03:54:00.585Z,0.50
2023-02-04T03:56:28.530Z,0.49
2023-02-04T03:58:56.410Z,0.46
2023-02-04T04:01:24.273Z,0.43
2023-02-04T04:03:52.117Z,0.40
2023-02-04T04:06:19.963Z,0.39
2023-02-04T04:08:47.806Z,0.37
2023-02-04T04:11:15.791Z,0.33
2023-02-04T04:13:43.786Z,0.30
2023-02-04T04:16:11.681Z,0.28
2023-02-04T04:18:39.597Z,0.27
2023-02-04T04:21:07.383Z,0.27
2023-02-04T04:23:35.435Z,0.28
2023-02-04T04:26:03.282Z,0.28
2023-02-04T04:28:31.129Z,0.27
2023-02-04T04:30:59.102Z,0.27
2023-02-04T04:33:27.016Z,0.26
2023-02-04T04:35:54.904Z,0.26
2023-02-04T04:38:22.839Z,0.24
2023-02-04T04:40:50.752Z,0.22
2023-02-04T04:43:18.710Z,0.21
2023-02-04T04:45:46.647Z,0.21
2023-02-04T04:48:14.587Z,0.21
2023-02-04T04:50:42.443Z,0.20
2023-02-04T04:53:11.437Z,0.20
2023-02-04T04:55:39.740Z,0.18
2023-02-04T04:58:08.740Z,0.16
2023-02-04T05:00:36.668Z,0.14
2023-02-04T05:03:04.483Z,0.14
2023-02-04T05:05:32.341Z,0.13
2023-02-04T05:08:00.276Z,0.13
2023-02-04T05:10:28.063Z,0.13
2023-02-04T05:12:55.960Z,0.14
2023-02-04T05:15:23.782Z,0.12
2023-02-04T05:17:51.616Z,0.10
2023-02-04T05:20:19.426Z,0.09
2023-02-04T05:22:47.240Z,0.08
2023-02-04T05:25:16.708Z,0.06
2023-02-04T05:27:45.190Z,0.07
2023-02-04T05:30:13.765Z,0.06
2023-02-04T05:32:41.878Z,0.07
2023-02-04T05:35:09.940Z,0.06
2023-02-04T05:37:37.803Z,0.08
2023-02-04T05:40:06.284Z,0.09
2023-02-04T05:42:34.106Z,0.09
2023-02-04T05:45:01.955Z,0.09
2023-02-04T05:47:29.822Z,0.11
2023-02-04T05:49:57.652Z,0.10
2023-02-04T05:52:25.480Z,0.08
2023-02-04T05:54:53.281Z,0.08
2023-02-04T05:57:21.087Z,0.08
2023-02-04T05:59:48.931Z,0.08
2023-02-04T06:02:16.741Z,0.08
2023-02-04T06:04:44.933Z,0.08
2023-02-04T06:07:12.848Z,0.09
2023-02-04T06:09:40.725Z,0.10
2023-02-04T06:12:11.679Z,0.10
2023-02-04T06:14:40.567Z,0.08
2023-02-04T06:17:08.352Z,0.07
2023-02-04T06:19:36.314Z,0.07
2023-02-04T06:22:04.223Z,0.07
2023-02-04T06:24:32.046Z,0.07
2023-02-04T06:26:59.887Z,0.05
2023-02-04T06:29:27.767Z,0.04
2023-02-04T06:31:55.708Z,0.02
2023-02-04T06:34:23.633Z,-0.00
2023-02-04T06:36:51.519Z,-0.03
2023-02-04T06:39:21.046Z,-0.06
2023-02-04T06:41:48.877Z,-0.11
2023-02-04T06:44:16.744Z,-0.15
2023-02-04T06:46:44.571Z,-0.18
2023-02-04T06:49:12.492Z,-0.22
2023-02-04T06:51:40.350Z,-0.25
2023-02-04T06:54:08.236Z,-0.27
2023-02-04T06:56:36.085Z,-0.30
2023-02-04T06:59:04.038Z,-0.32
2023-02-04T07:01:31.915Z,-0.34
2023-02-04T07:03:59.838Z,-0.34
2023-02-04T07:06:27.806Z,-0.35
2023-02-04T07:08:55.652Z,-0.36
2023-02-04T07:11:23.473Z,-0.36
2023-02-04T07:13:51.293Z,-0.37
2023-02-04T07:16:19.216Z,-0.36
2023-02-04T07:18:47.039Z,-0.33
2023-02-04T07:21:14.868Z,-0.33
2023-02-04T07:23:42.747Z,-0.31
2023-02-04T07:26:10.572Z,-0.29
2023-02-04T07:28:38.864Z,-0.27
2023-02-04T07:31:07.254Z,-0.23
2023-02-04T07:33:35.125Z,-0.18
2023-02-04T07:36:03.000Z,-0.14
2023-02-04T07:38:31.047Z,-0.10
2023-02-04T07:40:58.896Z,-0.06
2023-02-04T07:43:26.933Z,0.03
2023-02-04T07:45:54.977Z,0.16
2023-02-04T07:48:22.838Z,0.29
2023-02-04T07:50:50.686Z,0.28
2023-02-04T07:53:18.624Z,0.28
2023-02-04T07:55:46.433Z,0.25
2023-02-04T07:58:14.259Z,0.25
2023-02-04T08:00:42.072Z,0.28
2023-02-04T08:03:10.106Z,0.32
2023-02-04T08:05:38.021Z,0.36
2023-02-04T08:08:05.933Z,0.38
2023-02-04T08:10:34.265Z,0.39
2023-02-04T08:13:02.273Z,0.42
2023-02-04T08:15:30.177Z,0.45
2023-02-04T08:17:58.189Z,0.47
2023-02-04T08:20:26.254Z,0.53
2023-02-04T08:22:54.151Z,0.60
2023-02-04T08:25:22.061Z,0.70
2023-02-04T08:27:49.915Z,0.75
2023-02-04T08:30:18.087Z,0.77
2023-02-04T08:32:45.973Z,0.82
2023-02-04T08:35:13.933Z,0.91
2023-02-04T08:37:41.812Z,1.02
2023-02-04T08:40:10.476Z,1.12
2023-02-04T08:42:38.495Z,1.21
2023-02-04T08:45:06.758Z,1.34
2023-02-04T08:47:34.638Z,1.52
2023-02-04T08:50:02.591Z,1.65
2023-02-04T08:52:30.544Z,1.66
2023-02-04T08:54:58.509Z,1.61
2023-02-04T08:57:26.310Z,1.49
2023-02-04T08:59:54.177Z,1.43
2023-02-04T09:02:21.980Z,1.44
2023-02-04T09:04:49.909Z,1.47
2023-02-04T09:07:17.773Z,1.47
2023-02-04T09:09:45.633Z,1.48
2023-02-04T09:12:13.588Z,1.46
2023-02-04T09:14:41.377Z,1.50
2023-02-04T09:17:09.212Z,1.57
2023-02-04T09:19:37.068Z,1.59
2023-02-04T09:22:04.969Z,1.53
2023-02-04T09:24:32.768Z,1.47
2023-02-04T09:27:00.626Z,1.45
2023-02-04T09:29:28.492Z,1.41
2023-02-04T09:31:56.639Z,1.44
2023-02-04T09:34:24.644Z,1.42
2023-02-04T09:36:52.492Z,1.39
2023-02-04T09:39:20.314Z,1.41
2023-02-04T09:41:48.202Z,1.45
2023-02-04T09:44:19.922Z,1.49
2023-02-04T09:46:50.617Z,1.55
2023-02-04T09:49:18.658Z,1.59
2023-02-04T09:51:47.991Z,1.61
2023-02-04T09:54:18.883Z,1.65
2023-02-04T09:56:47.918Z,1.64
2023-02-04T09:59:21.512Z,1.65
2023-02-04T10:01:59.508Z,1.70
2023-02-04T10:04:28.802Z,1.77
2023-02-04T10:07:00.528Z,1.84
2023-02-04T10:09:28.463Z,1.90
2023-02-04T10:11:56.315Z,1.94
2023-02-04T10:14:24.605Z,1.98
2023-02-04T10:17:01.426Z,2.00
2023-02-04T10:19:30.969Z,2.09
2023-02-04T10:21:59.234Z,2.08
2023-02-04T10:24:30.295Z,2.05
2023-02-04T10:27:09.066Z,2.01
2023-02-04T10:29:37.575Z,2.01
2023-02-04T10:32:05.655Z,2.06
2023-02-04T10:34:35.161Z,2.09
2023-02-04T10:37:14.486Z,2.06
2023-02-04T10:39:43.473Z,2.08
2023-02-04T10:42:24.730Z,2.12
2023-02-04T10:44:53.406Z,2.14
2023-02-04T10:47:24.782Z,2.16
2023-02-04T10:50:04.782Z,2.26
2023-02-04T10:52:39.240Z,2.35
2023-02-04T10:55:13.245Z,2.39
2023-02-04T10:57:43.873Z,2.42
2023-02-04T11:00:17.072Z,2.39
2023-02-04T11:02:49.878Z,2.44
2023-02-04T11:05:20.965Z,2.42
2023-02-04T11:07:50.118Z,2.24
2023-02-04T11:10:24.504Z,2.17
2023-02-04T11:12:55.478Z,2.16
2023-02-04T11:15:48.585Z,2.12
2023-02-04T11:18:21.130Z,2.08
2023-02-04T11:20:50.505Z,2.09
2023-02-04T11:23:27.672Z,2.05
2023-02-04T11:26:22.670Z,2.05
2023-02-04T11:29:16.587Z,2.05
2023-02-04T11:31:57.282Z,2.09
2023-02-04T11:34:29.386Z,2.14
2023-02-04T11:37:04.654Z,2.16
2023-02-04T11:39:43.913Z,2.26
2023-02-04T11:42:20.043Z,2.36
2023-02-04T11:44:55.994Z,2.35
2023-02-04T11:47:25.635Z,2.33
2023-02-04T11:49:59.976Z,2.38
2023-02-04T11:52:27.924Z,2.40
2023-02-04T11:54:59.685Z,2.45
2023-02-04T11:57:27.842Z,2.54
2023-02-04T11:59:55.804Z,2.53
2023-02-04T12:02:26.337Z,2.56
2023-02-04T12:05:09.103Z,2.62
2023-02-04T12:07:37.022Z,2.63
2023-02-04T12:10:34.281Z,2.62
2023-02-04T12:13:13.362Z,2.66
2023-02-04T12:15:41.207Z,2.84
2023-02-04T12:18:12.933Z,2.97
2023-02-04T12:20:40.773Z,2.99
2023-02-04T12:23:08.686Z,2.83
2023-02-04T12:25:36.651Z,2.70
2023-02-04T12:28:04.781Z,2.57
2023-02-04T12:30:32.690Z,2.46
2023-02-04T12:33:00.509Z,2.45
2023-02-04T12:35:28.326Z,2.51
2023-02-04T12:37:56.381Z,2.57
2023-02-04T12:40:24.317Z,2.58
2023-02-04T12:42:52.418Z,2.58
2023-02-04T12:45:20.374Z,2.51
2023-02-04T12:47:48.410Z,2.24
2023-02-04T12:50:24.744Z,1.80
2023-02-04T12:52:54.934Z,1.52
2023-02-04T12:55:24.874Z,1.40
2023-02-04T12:57:52.820Z,1.43
2023-02-04T13:00:21.917Z,1.51
2023-02-04T13:02:50.121Z,1.58
2023-02-04T13:05:18.593Z,1.66
2023-02-04T13:07:46.780Z,1.67
2023-02-04T13:10:14.823Z,1.59
2023-02-04T13:12:42.670Z,1.48
2023-02-04T13:15:11.004Z,1.38
2023-02-04T13:17:38.905Z,1.20
2023-02-04T13:20:07.499Z,0.90
2023-02-04T13:22:35.728Z,0.72
2023-02-04T13:25:04.242Z,0.64
2023-02-04T13:27:32.452Z,0.54
2023-02-04T13:30:00.372Z,0.47
2023-02-04T13:32:28.260Z,0.44
2023-02-04T13:34:56.200Z,0.47
2023-02-04T13:37:24.220Z,0.53
2023-02-04T13:39:52.129Z,0.58
2023-02-04T13:42:19.960Z,0.58
2023-02-04T13:44:47.792Z,0.56
2023-02-04T13:47:15.612Z,0.57
2023-02-04T13:49:43.509Z,0.56
2023-02-04T13:52:11.458Z,0.58
2023-02-04T13:54:39.472Z,0.63
2023-02-04T13:57:07.314Z,0.69
2023-02-04T13:59:35.155Z,0.73
2023-02-04T14:02:03.133Z,0.79
2023-02-04T14:04:31.021Z,0.87
2023-02-04T14:06:58.947Z,0.95
2023-02-04T14:09:26.804Z,1.03
2023-02-04T14:11:54.714Z,1.07
2023-02-04T14:14:22.638Z,1.13
2023-02-04T14:16:50.507Z,1.20
2023-02-04T14:19:18.380Z,1.25
2023-02-04T14:21:46.505Z,1.28
2023-02-04T14:24:14.331Z,1.34
2023-02-04T14:26:42.146Z,1.40
2023-02-04T14:29:11.212Z,1.45
2023-02-04T14:31:39.154Z,1.47
2023-02-04T14:34:07.076Z,1.51
2023-02-04T14:36:34.905Z,1.54
2023-02-04T14:39:02.871Z,1.55
2023-02-04T14:41:31.353Z,1.58
2023-02-04T14:43:59.744Z,1.58
2023-02-04T14:46:28.304Z,1.55
2023-02-04T14:48:56.392Z,1.54
2023-02-04T14:51:24.332Z,1.55
2023-02-04T14:53:52.152Z,1.51
2023-02-04T14:56:20.004Z,1.47
2023-02-04T14:58:47.901Z,1.46
2023-02-04T15:01:15.984Z,1.42
2023-02-04T15:03:43.937Z,1.39
2023-02-04T15:06:11.840Z,1.39
2023-02-04T15:08:39.720Z,1.39
2023-02-04T15:11:07.652Z,1.40
2023-02-04T15:13:35.631Z,1.41
2023-02-04T15:16:05.469Z,1.42
2023-02-04T15:18:33.768Z,1.42
2023-02-04T15:21:01.953Z,1.44
2023-02-04T15:23:30.033Z,1.47
2023-02-04T15:25:58.016Z,1.44
2023-02-04T15:28:27.746Z,1.42
2023-02-04T15:30:55.719Z,1.44
2023-02-04T15:33:23.814Z,1.25
2023-02-04T15:35:51.728Z,0.91
2023-02-04T15:38:19.714Z,0.56
2023-02-04T15:40:47.797Z,0.22
2023-02-04T15:43:15.612Z,0.02
2023-02-04T15:45:43.996Z,-0.10
2023-02-04T15:48:11.929Z,-0.15
2023-02-04T15:50:39.909Z,-0.19
2023-02-04T15:53:07.770Z,-0.21
2023-02-04T15:55:35.639Z,-0.23
2023-02-04T15:58:03.576Z,-0.21
2023-02-04T16:00:31.820Z,-0.19
2023-02-04T16:02:59.992Z,-0.18
2023-02-04T16:05:28.120Z,-0.16
2023-02-04T16:07:55.997Z,-0.13
2023-02-04T16:10:23.943Z,-0.10
2023-02-04T16:12:52.470Z,-0.04
2023-02-04T16:15:20.353Z,0.02
2023-02-04T16:17:48.389Z,0.08
2023-02-04T16:20:16.631Z,0.12
2023-02-04T16:22:44.479Z,0.18
2023-02-04T16:25:12.438Z,0.22
2023-02-04T16:27:40.426Z,0.26
2023-02-04T16:30:09.121Z,0.33
2023-02-04T16:32:37.647Z,0.39
2023-02-04T16:35:06.812Z,0.43
2023-02-04T16:37:35.261Z,0.50
2023-02-04T16:40:04.916Z,0.53
2023-02-04T16:42:32.924Z,0.56
2023-02-04T16:45:01.165Z,0.60
2023-02-04T16:47:29.135Z,0.68
2023-02-04T16:50:00.814Z,0.71
2023-02-04T16:52:28.941Z,0.70
2023-02-04T16:54:57.013Z,0.68
2023-02-04T16:57:25.072Z,0.66
2023-02-04T16:59:52.964Z,0.69
2023-02-04T17:02:20.857Z,0.99
2023-02-04T17:04:48.781Z,0.90
2023-02-04T17:07:16.584Z,0.76
2023-02-04T17:09:44.391Z,0.65
2023-02-04T17:12:12.292Z,0.56
2023-02-04T17:14:41.126Z,0.50
2023-02-04T17:17:09.121Z,0.44
2023-02-04T17:19:37.051Z,0.40
2023-02-04T17:22:05.406Z,0.39
2023-02-04T17:24:33.287Z,0.38
2023-02-04T17:27:03.284Z,0.38
2023-02-04T17:29:31.250Z,0.39
2023-02-04T17:31:59.053Z,0.39
2023-02-04T17:34:26.918Z,0.37
2023-02-04T17:36:54.815Z,0.34
2023-02-04T17:39:22.784Z,0.33
2023-02-04T17:41:50.599Z,0.32
2023-02-04T17:44:20.065Z,0.31
2023-02-04T17:46:48.059Z,0.32
2023-02-04T17:49:16.145Z,0.32
2023-02-04T17:51:44.055Z,0.29
2023-02-04T17:54:12.612Z,0.28
2023-02-04T17:56:40.419Z,0.26
2023-02-04T17:59:11.287Z,0.25
2023-02-04T18:01:41.315Z,0.22
2023-02-04T18:04:12.856Z,0.21
2023-02-04T18:06:41.075Z,0.20
2023-02-04T18:09:15.368Z,0.20
2023-02-04T18:11:44.256Z,0.18
2023-02-04T18:14:20.537Z,0.18
2023-02-04T18:16:48.961Z,0.18
2023-02-04T18:19:21.036Z,0.17
2023-02-04T18:21:49.978Z,0.16
2023-02-04T18:24:32.448Z,0.16
2023-02-04T18:27:04.526Z,0.13
2023-02-04T18:29:35.574Z,0.09
2023-02-04T18:32:15.794Z,0.08
2023-02-04T18:34:46.530Z,0.08
2023-02-04T18:37:25.988Z,0.07
2023-02-04T18:40:08.830Z,0.08
2023-02-04T18:42:44.909Z,0.10
2023-02-04T18:45:20.896Z,0.09
2023-02-04T18:47:49.032Z,0.07
2023-02-04T18:50:33.398Z,0.05
2023-02-04T18:53:19.560Z,0.03
2023-02-04T18:55:56.583Z,0.02
2023-02-04T18:58:35.289Z,0.02
2023-02-04T19:01:12.950Z,0.02
2023-02-04T19:03:52.366Z,0.02
2023-02-04T19:06:37.479Z,0.03
2023-02-04T19:09:17.652Z,0.03
2023-02-04T19:11:48.653Z,0.02
2023-02-04T19:14:34.525Z,-0.00
2023-02-04T19:17:14.649Z,-0.01
2023-02-04T19:20:02.615Z,-0.02
2023-02-04T19:22:49.737Z,-0.04
2023-02-04T19:25:33.023Z,-0.06
2023-02-04T19:28:03.405Z,-0.08
2023-02-04T19:30:31.188Z,-0.11
2023-02-04T19:33:10.022Z,-0.13
2023-02-04T19:35:46.249Z,-0.16
2023-02-04T19:38:43.153Z,-0.22
2023-02-04T19:41:27.955Z,-0.28
2023-02-04T19:44:08.770Z,-0.32
2023-02-04T19:46:36.884Z,-0.36
2023-02-04T19:49:23.910Z,-0.41
2023-02-04T19:51:54.581Z,-0.46
2023-02-04T19:54:25.424Z,-0.49
2023-02-04T19:56:54.858Z,-0.51
2023-02-04T19:59:25.713Z,-0.53
2023-02-04T20:02:16.267Z,-0.56
2023-02-04T20:04:49.726Z,-0.58
2023-02-04T20:07:21.482Z,-0.58
2023-02-04T20:09:59.040Z,-0.58
2023-02-04T20:12:29.557Z,-0.59
2023-02-04T20:14:58.563Z,-0.59
2023-02-04T20:17:39.866Z,-0.61
2023-02-04T20:20:20.903Z,-0.61
2023-02-04T20:22:54.584Z,-0.59
2023-02-04T20:25:28.113Z,-0.57
2023-02-04T20:27:58.450Z,-0.55
2023-02-04T20:30:29.521Z,-0.52
2023-02-04T20:32:59.748Z,-0.48
2023-02-04T20:35:33.746Z,-0.47
2023-02-04T20:38:11.294Z,-0.46
2023-02-04T20:40:39.297Z,-0.46
2023-02-04T20:43:15.883Z,-0.46
2023-02-04T20:45:57.188Z,-0.46
2023-02-04T20:48:37.067Z,-0.47
2023-02-04T20:51:15.580Z,-0.54
2023-02-04T20:53:55.432Z,-0.59
2023-02-04T20:56:34.056Z,-0.66
2023-02-04T20:59:14.544Z,-0.69
2023-02-04T21:01:44.601Z,-0.70
2023-02-04T21:04:20.359Z,-0.71
2023-02-04T21:06:53.767Z,-0.70
2023-02-04T21:09:27.582Z,-0.73
2023-02-04T21:11:56.750Z,-0.74
2023-02-04T21:14:26.289Z,-0.78
2023-02-04T21:16:54.954Z,-0.83
2023-02-04T21:19:24.122Z,-0.88
2023-02-04T21:21:52.273Z,-0.93
2023-02-04T21:24:20.231Z,-1.00
2023-02-04T21:26:48.309Z,-1.06
2023-02-04T21:29:16.398Z,-1.12
2023-02-04T21:31:46.498Z,-1.16
2023-02-04T21:34:15.847Z,-1.19
2023-02-04T21:36:43.849Z,-1.24
2023-02-04T21:39:11.769Z,-1.28
2023-02-04T21:41:39.822Z,-1.31
2023-02-04T21:44:07.807Z,-1.37
2023-02-04T21:46:35.762Z,-1.41
2023-02-04T21:49:04.958Z,-1.47
2023-02-04T21:51:32.805Z,-1.50
2023-02-04T21:54:03.458Z,-1.51
2023-02-04T21:56:31.641Z,-1.54
2023-02-04T21:58:59.587Z,-1.57
2023-02-04T22:01:27.430Z,-1.60
2023-02-04T22:03:55.321Z,-1.64
2023-02-04T22:06:23.230Z,-1.66
2023-02-04T22:08:51.075Z,-1.67
2023-02-04T22:11:18.955Z,-1.69
2023-02-04T22:13:46.926Z,-1.73
2023-02-04T22:16:14.793Z,-1.75
2023-02-04T22:18:42.676Z,-1.78
2023-02-04T22:21:10.552Z,-1.80
2023-02-04T22:23:39.694Z,-1.82
2023-02-04T22:26:07.667Z,-1.84
2023-02-04T22:28:35.502Z,-1.85
2023-02-04T22:31:03.393Z,-1.87
2023-02-04T22:33:31.377Z,-1.89
2023-02-04T22:35:59.205Z,-1.91
2023-02-04T22:38:27.066Z,-1.92
2023-02-04T22:40:54.897Z,-1.94
2023-02-04T22:43:22.736Z,-1.95
2023-02-04T22:45:50.677Z,-1.98
2023-02-04T22:48:18.455Z,-2.00
2023-02-04T22:50:46.259Z,-2.03
2023-02-04T22:53:14.042Z,-2.03
2023-02-04T22:55:41.926Z,-2.04
2023-02-04T22:58:09.811Z,-2.05
2023-02-04T23:00:37.683Z,-2.07
2023-02-04T23:03:05.530Z,-2.08
2023-02-04T23:05:33.573Z,-2.10
2023-02-04T23:08:01.697Z,-2.12
2023-02-04T23:10:29.615Z,-2.14
2023-02-04T23:12:57.517Z,-2.14
2023-02-04T23:15:25.385Z,-2.15
2023-02-04T23:17:53.230Z,-2.16
2023-02-04T23:20:21.083Z,-2.16
2023-02-04T23:22:48.914Z,-2.17
2023-02-04T23:25:16.883Z,-2.18
2023-02-04T23:27:44.804Z,-2.20
2023-02-04T23:30:14.483Z,-2.22
2023-02-04T23:32:42.785Z,-2.23
2023-02-04T23:35:10.789Z,-2.25
2023-02-04T23:37:38.772Z,-2.25
2023-02-04T23:40:07.245Z,-2.27
2023-02-04T23:42:35.176Z,-2.26
2023-02-04T23:45:03.313Z,-2.28
2023-02-04T23:47:31.252Z,-2.30
2023-02-04T23:49:59.063Z,-2.31
2023-02-04T23:52:26.894Z,-2.31
2023-02-04T23:54:55.076Z,-2.31
2023-02-04T23:57:23.240Z,-2.29
2023-02-04T23:59:51.255Z,-2.27
